sensor_id;sensor_type;location;lat;lon;timestamp;P1;durP1;ratioP1;P2;durP2;ratioP2
59062;SDS011;44851;45.648;9.004;2023-07-30T00:01:47;3.70;;;3.40;;
59062;SDS011;44851;45.648;9.004;2023-07-30T00:04:12;3.57;;;3.23;;
59062;SDS011;44851;45.648;9.004;2023-07-30T00:06:38;3.93;;;3.60;;
59062;SDS011;44851;45.648;9.004;2023-07-30T00:09:03;8.27;;;4.27;;
59062;SDS011;44851;45.648;9.004;2023-07-30T00:11:31;3.70;;;3.40;;
59062;SDS011;44851;45.648;9.004;2023-07-30T00:13:57;3.83;;;3.53;;
59062;SDS011;44851;45.648;9.004;2023-07-30T00:16:24;3.70;;;3.40;;
59062;SDS011;44851;45.648;9.004;2023-07-30T00:18:55;4.20;;;3.90;;
59062;SDS011;44851;45.648;9.004;2023-07-30T00:21:21;4.37;;;3.97;;
59062;SDS011;44851;45.648;9.004;2023-07-30T00:23:47;4.30;;;3.90;;
59062;SDS011;44851;45.648;9.004;2023-07-30T00:26:12;4.77;;;4.17;;
59062;SDS011;44851;45.648;9.004;2023-07-30T00:28:38;5.80;;;4.20;;
59062;SDS011;44851;45.648;9.004;2023-07-30T00:31:03;5.50;;;4.10;;
59062;SDS011;44851;45.648;9.004;2023-07-30T00:33:31;4.20;;;3.80;;
59062;SDS011;44851;45.648;9.004;2023-07-30T00:35:57;5.07;;;4.37;;
59062;SDS011;44851;45.648;9.004;2023-07-30T00:38:22;5.37;;;4.23;;
59062;SDS011;44851;45.648;9.004;2023-07-30T00:40:48;5.20;;;4.17;;
59062;SDS011;44851;45.648;9.004;2023-07-30T00:43:14;6.70;;;4.40;;
59062;SDS011;44851;45.648;9.004;2023-07-30T00:45:40;4.63;;;4.13;;
59062;SDS011;44851;45.648;9.004;2023-07-30T00:48:07;4.20;;;3.77;;
59062;SDS011;44851;45.648;9.004;2023-07-30T00:50:34;5.70;;;3.83;;
59062;SDS011;44851;45.648;9.004;2023-07-30T00:53:00;4.17;;;3.77;;
59062;SDS011;44851;45.648;9.004;2023-07-30T00:55:25;3.93;;;3.63;;
59062;SDS011;44851;45.648;9.004;2023-07-30T00:57:51;4.43;;;4.03;;
59062;SDS011;44851;45.648;9.004;2023-07-30T01:00:17;4.47;;;4.07;;
59062;SDS011;44851;45.648;9.004;2023-07-30T01:02:43;5.87;;;4.53;;
59062;SDS011;44851;45.648;9.004;2023-07-30T01:05:09;4.60;;;4.20;;
59062;SDS011;44851;45.648;9.004;2023-07-30T01:07:34;5.10;;;4.60;;
59062;SDS011;44851;45.648;9.004;2023-07-30T01:09:59;4.80;;;4.30;;
59062;SDS011;44851;45.648;9.004;2023-07-30T01:12:26;4.47;;;4.07;;
59062;SDS011;44851;45.648;9.004;2023-07-30T01:14:54;6.20;;;4.57;;
59062;SDS011;44851;45.648;9.004;2023-07-30T01:17:20;5.27;;;4.60;;
59062;SDS011;44851;45.648;9.004;2023-07-30T01:19:47;5.17;;;4.50;;
59062;SDS011;44851;45.648;9.004;2023-07-30T01:22:14;5.10;;;4.20;;
59062;SDS011;44851;45.648;9.004;2023-07-30T01:24:41;4.60;;;4.20;;
59062;SDS011;44851;45.648;9.004;2023-07-30T01:27:07;5.33;;;4.60;;
59062;SDS011;44851;45.648;9.004;2023-07-30T01:32:19;4.70;;;4.30;;
59062;SDS011;44851;45.648;9.004;2023-07-30T01:34:49;5.33;;;4.40;;
59062;SDS011;44851;45.648;9.004;2023-07-30T01:37:17;5.03;;;4.63;;
59062;SDS011;44851;45.648;9.004;2023-07-30T01:39:43;6.63;;;5.17;;
59062;SDS011;44851;45.648;9.004;2023-07-30T01:42:13;6.97;;;6.30;;
59062;SDS011;44851;45.648;9.004;2023-07-30T01:44:39;6.90;;;6.30;;
59062;SDS011;44851;45.648;9.004;2023-07-30T01:47:04;7.03;;;6.37;;
59062;SDS011;44851;45.648;9.004;2023-07-30T01:49:30;6.80;;;6.20;;
59062;SDS011;44851;45.648;9.004;2023-07-30T01:51:55;6.63;;;6.03;;
59062;SDS011;44851;45.648;9.004;2023-07-30T01:54:21;6.57;;;5.90;;
59062;SDS011;44851;45.648;9.004;2023-07-30T01:56:46;7.07;;;6.47;;
59062;SDS011;44851;45.648;9.004;2023-07-30T01:59:11;6.93;;;6.30;;
59062;SDS011;44851;45.648;9.004;2023-07-30T02:01:37;7.37;;;6.63;;
59062;SDS011;44851;45.648;9.004;2023-07-30T02:04:02;7.93;;;6.43;;
59062;SDS011;44851;45.648;9.004;2023-07-30T02:06:28;7.40;;;6.80;;
59062;SDS011;44851;45.648;9.004;2023-07-30T02:08:53;8.17;;;7.43;;
59062;SDS011;44851;45.648;9.004;2023-07-30T02:11:18;8.90;;;8.10;;
59062;SDS011;44851;45.648;9.004;2023-07-30T02:13:44;8.30;;;7.60;;
59062;SDS011;44851;45.648;9.004;2023-07-30T02:16:09;9.20;;;8.30;;
59062;SDS011;44851;45.648;9.004;2023-07-30T02:18:35;9.33;;;8.43;;
59062;SDS011;44851;45.648;9.004;2023-07-30T02:21:00;9.20;;;8.40;;
59062;SDS011;44851;45.648;9.004;2023-07-30T02:23:25;9.67;;;8.77;;
59062;SDS011;44851;45.648;9.004;2023-07-30T02:25:53;9.00;;;8.20;;
59062;SDS011;44851;45.648;9.004;2023-07-30T02:28:18;9.70;;;8.80;;
59062;SDS011;44851;45.648;9.004;2023-07-30T02:30:43;10.57;;;9.57;;
59062;SDS011;44851;45.648;9.004;2023-07-30T02:33:09;9.80;;;8.97;;
59062;SDS011;44851;45.648;9.004;2023-07-30T02:35:34;9.43;;;8.67;;
59062;SDS011;44851;45.648;9.004;2023-07-30T02:38:00;11.03;;;10.00;;
59062;SDS011;44851;45.648;9.004;2023-07-30T02:40:25;11.00;;;9.83;;
59062;SDS011;44851;45.648;9.004;2023-07-30T02:42:51;10.83;;;9.83;;
59062;SDS011;44851;45.648;9.004;2023-07-30T02:45:16;10.87;;;9.80;;
59062;SDS011;44851;45.648;9.004;2023-07-30T02:47:43;10.37;;;9.47;;
59062;SDS011;44851;45.648;9.004;2023-07-30T02:50:08;10.57;;;9.57;;
59062;SDS011;44851;45.648;9.004;2023-07-30T02:52:34;11.37;;;10.23;;
59062;SDS011;44851;45.648;9.004;2023-07-30T02:54:59;11.30;;;10.20;;
59062;SDS011;44851;45.648;9.004;2023-07-30T02:57:25;12.03;;;10.93;;
59062;SDS011;44851;45.648;9.004;2023-07-30T02:59:50;11.80;;;10.70;;
59062;SDS011;44851;45.648;9.004;2023-07-30T03:02:16;12.77;;;11.00;;
59062;SDS011;44851;45.648;9.004;2023-07-30T03:04:41;11.13;;;10.10;;
59062;SDS011;44851;45.648;9.004;2023-07-30T03:07:06;11.50;;;10.40;;
59062;SDS011;44851;45.648;9.004;2023-07-30T03:09:33;12.47;;;11.23;;
59062;SDS011;44851;45.648;9.004;2023-07-30T03:11:59;13.87;;;12.57;;
59062;SDS011;44851;45.648;9.004;2023-07-30T03:14:24;13.50;;;12.30;;
59062;SDS011;44851;45.648;9.004;2023-07-30T03:16:50;12.80;;;11.60;;
59062;SDS011;44851;45.648;9.004;2023-07-30T03:19:15;13.00;;;11.77;;
59062;SDS011;44851;45.648;9.004;2023-07-30T03:21:41;12.33;;;11.23;;
59062;SDS011;44851;45.648;9.004;2023-07-30T03:24:07;11.67;;;10.67;;
59062;SDS011;44851;45.648;9.004;2023-07-30T03:26:32;15.10;;;11.30;;
59062;SDS011;44851;45.648;9.004;2023-07-30T03:28:57;12.80;;;11.33;;
59062;SDS011;44851;45.648;9.004;2023-07-30T03:31:23;11.73;;;10.63;;
59062;SDS011;44851;45.648;9.004;2023-07-30T03:33:49;12.03;;;10.83;;
59062;SDS011;44851;45.648;9.004;2023-07-30T03:36:14;12.40;;;11.30;;
59062;SDS011;44851;45.648;9.004;2023-07-30T03:38:40;12.27;;;11.07;;
59062;SDS011;44851;45.648;9.004;2023-07-30T03:41:06;12.67;;;11.57;;
59062;SDS011;44851;45.648;9.004;2023-07-30T03:43:34;12.27;;;11.10;;
59062;SDS011;44851;45.648;9.004;2023-07-30T03:46:00;12.67;;;11.57;;
59062;SDS011;44851;45.648;9.004;2023-07-30T03:48:26;12.67;;;11.47;;
59062;SDS011;44851;45.648;9.004;2023-07-30T03:50:55;12.07;;;10.97;;
59062;SDS011;44851;45.648;9.004;2023-07-30T03:53:21;12.90;;;11.70;;
59062;SDS011;44851;45.648;9.004;2023-07-30T03:55:47;12.67;;;11.37;;
59062;SDS011;44851;45.648;9.004;2023-07-30T03:58:12;13.00;;;11.90;;
59062;SDS011;44851;45.648;9.004;2023-07-30T04:00:38;13.63;;;12.43;;
59062;SDS011;44851;45.648;9.004;2023-07-30T04:03:04;13.03;;;11.93;;
59062;SDS011;44851;45.648;9.004;2023-07-30T04:05:29;12.30;;;11.30;;
59062;SDS011;44851;45.648;9.004;2023-07-30T04:07:55;13.03;;;11.83;;
59062;SDS011;44851;45.648;9.004;2023-07-30T04:10:21;13.20;;;11.53;;
59062;SDS011;44851;45.648;9.004;2023-07-30T04:12:46;13.03;;;11.80;;
59062;SDS011;44851;45.648;9.004;2023-07-30T04:15:11;13.03;;;11.73;;
59062;SDS011;44851;45.648;9.004;2023-07-30T04:17:37;13.07;;;11.77;;
59062;SDS011;44851;45.648;9.004;2023-07-30T04:20:03;13.70;;;12.50;;
59062;SDS011;44851;45.648;9.004;2023-07-30T04:22:29;13.50;;;12.37;;
59062;SDS011;44851;45.648;9.004;2023-07-30T04:24:55;13.10;;;11.80;;
59062;SDS011;44851;45.648;9.004;2023-07-30T04:27:20;14.17;;;12.87;;
59062;SDS011;44851;45.648;9.004;2023-07-30T04:29:46;13.70;;;12.40;;
59062;SDS011;44851;45.648;9.004;2023-07-30T04:32:11;13.30;;;12.17;;
59062;SDS011;44851;45.648;9.004;2023-07-30T04:34:37;13.90;;;12.70;;
59062;SDS011;44851;45.648;9.004;2023-07-30T04:37:03;14.70;;;13.20;;
59062;SDS011;44851;45.648;9.004;2023-07-30T04:39:29;14.07;;;12.67;;
59062;SDS011;44851;45.648;9.004;2023-07-30T04:41:58;14.43;;;13.20;;
59062;SDS011;44851;45.648;9.004;2023-07-30T04:44:24;15.60;;;14.03;;
59062;SDS011;44851;45.648;9.004;2023-07-30T04:46:49;14.60;;;13.20;;
59062;SDS011;44851;45.648;9.004;2023-07-30T04:49:15;15.30;;;13.80;;
59062;SDS011;44851;45.648;9.004;2023-07-30T04:51:40;14.73;;;13.33;;
59062;SDS011;44851;45.648;9.004;2023-07-30T04:54:06;15.77;;;14.17;;
59062;SDS011;44851;45.648;9.004;2023-07-30T04:56:31;14.40;;;13.23;;
59062;SDS011;44851;45.648;9.004;2023-07-30T04:58:56;14.77;;;13.37;;
59062;SDS011;44851;45.648;9.004;2023-07-30T05:01:23;14.40;;;13.10;;
59062;SDS011;44851;45.648;9.004;2023-07-30T05:03:49;15.23;;;13.93;;
59062;SDS011;44851;45.648;9.004;2023-07-30T05:06:14;14.07;;;12.87;;
59062;SDS011;44851;45.648;9.004;2023-07-30T05:08:40;15.60;;;14.20;;
59062;SDS011;44851;45.648;9.004;2023-07-30T05:11:05;15.37;;;13.93;;
59062;SDS011;44851;45.648;9.004;2023-07-30T05:13:31;15.60;;;14.17;;
59062;SDS011;44851;45.648;9.004;2023-07-30T05:15:56;15.97;;;14.63;;
59062;SDS011;44851;45.648;9.004;2023-07-30T05:18:21;16.67;;;15.07;;
59062;SDS011;44851;45.648;9.004;2023-07-30T05:20:47;16.80;;;15.40;;
59062;SDS011;44851;45.648;9.004;2023-07-30T05:23:12;17.40;;;15.77;;
59062;SDS011;44851;45.648;9.004;2023-07-30T05:25:38;16.83;;;15.10;;
59062;SDS011;44851;45.648;9.004;2023-07-30T05:28:03;16.67;;;15.13;;
59062;SDS011;44851;45.648;9.004;2023-07-30T05:30:28;17.30;;;15.67;;
59062;SDS011;44851;45.648;9.004;2023-07-30T05:32:54;17.60;;;15.90;;
59062;SDS011;44851;45.648;9.004;2023-07-30T05:35:20;17.60;;;15.93;;
59062;SDS011;44851;45.648;9.004;2023-07-30T05:37:45;17.53;;;15.73;;
59062;SDS011;44851;45.648;9.004;2023-07-30T05:40:10;16.73;;;15.23;;
59062;SDS011;44851;45.648;9.004;2023-07-30T05:42:36;16.73;;;15.23;;
59062;SDS011;44851;45.648;9.004;2023-07-30T05:45:01;17.30;;;15.60;;
59062;SDS011;44851;45.648;9.004;2023-07-30T05:47:27;15.77;;;14.37;;
59062;SDS011;44851;45.648;9.004;2023-07-30T05:49:52;17.80;;;16.10;;
59062;SDS011;44851;45.648;9.004;2023-07-30T05:52:18;16.77;;;15.23;;
59062;SDS011;44851;45.648;9.004;2023-07-30T05:54:43;17.40;;;15.80;;
59062;SDS011;44851;45.648;9.004;2023-07-30T05:57:08;18.33;;;16.27;;
59062;SDS011;44851;45.648;9.004;2023-07-30T05:59:34;17.17;;;15.37;;
59062;SDS011;44851;45.648;9.004;2023-07-30T06:02:01;17.07;;;15.30;;
59062;SDS011;44851;45.648;9.004;2023-07-30T06:04:28;17.23;;;15.63;;
59062;SDS011;44851;45.648;9.004;2023-07-30T06:06:53;16.73;;;15.23;;
59062;SDS011;44851;45.648;9.004;2023-07-30T06:09:19;16.13;;;14.63;;
59062;SDS011;44851;45.648;9.004;2023-07-30T06:11:44;15.73;;;14.33;;
59062;SDS011;44851;45.648;9.004;2023-07-30T06:14:09;16.63;;;14.40;;
59062;SDS011;44851;45.648;9.004;2023-07-30T06:16:35;16.40;;;14.70;;
59062;SDS011;44851;45.648;9.004;2023-07-30T06:19:00;14.83;;;13.50;;
59062;SDS011;44851;45.648;9.004;2023-07-30T06:21:26;15.87;;;14.37;;
59062;SDS011;44851;45.648;9.004;2023-07-30T06:23:51;14.10;;;12.90;;
59062;SDS011;44851;45.648;9.004;2023-07-30T06:26:16;15.07;;;13.67;;
59062;SDS011;44851;45.648;9.004;2023-07-30T06:28:42;13.87;;;12.60;;
59062;SDS011;44851;45.648;9.004;2023-07-30T06:31:07;14.37;;;12.97;;
59062;SDS011;44851;45.648;9.004;2023-07-30T06:33:32;13.37;;;12.27;;
59062;SDS011;44851;45.648;9.004;2023-07-30T06:35:58;13.37;;;12.00;;
59062;SDS011;44851;45.648;9.004;2023-07-30T06:38:23;13.73;;;12.33;;
59062;SDS011;44851;45.648;9.004;2023-07-30T06:40:49;13.17;;;11.93;;
59062;SDS011;44851;45.648;9.004;2023-07-30T06:43:14;12.47;;;11.17;;
59062;SDS011;44851;45.648;9.004;2023-07-30T06:45:39;11.57;;;10.57;;
59062;SDS011;44851;45.648;9.004;2023-07-30T06:48:05;12.27;;;11.07;;
59062;SDS011;44851;45.648;9.004;2023-07-30T06:50:30;11.50;;;10.40;;
59062;SDS011;44851;45.648;9.004;2023-07-30T06:52:55;10.20;;;9.20;;
59062;SDS011;44851;45.648;9.004;2023-07-30T06:55:21;10.67;;;9.67;;
59062;SDS011;44851;45.648;9.004;2023-07-30T06:57:46;11.03;;;10.13;;
59062;SDS011;44851;45.648;9.004;2023-07-30T07:00:12;11.87;;;10.77;;
59062;SDS011;44851;45.648;9.004;2023-07-30T07:02:38;11.07;;;10.07;;
59062;SDS011;44851;45.648;9.004;2023-07-30T07:05:04;11.70;;;10.73;;
59062;SDS011;44851;45.648;9.004;2023-07-30T07:07:30;12.07;;;10.97;;
59062;SDS011;44851;45.648;9.004;2023-07-30T07:09:55;11.63;;;10.63;;
59062;SDS011;44851;45.648;9.004;2023-07-30T07:12:21;11.93;;;10.60;;
59062;SDS011;44851;45.648;9.004;2023-07-30T07:14:46;11.67;;;10.53;;
59062;SDS011;44851;45.648;9.004;2023-07-30T07:17:12;11.30;;;10.07;;
59062;SDS011;44851;45.648;9.004;2023-07-30T07:19:37;11.33;;;10.13;;
59062;SDS011;44851;45.648;9.004;2023-07-30T07:22:03;11.37;;;10.27;;
59062;SDS011;44851;45.648;9.004;2023-07-30T07:24:29;11.33;;;10.33;;
59062;SDS011;44851;45.648;9.004;2023-07-30T07:26:56;10.97;;;9.83;;
59062;SDS011;44851;45.648;9.004;2023-07-30T07:29:21;11.13;;;10.13;;
59062;SDS011;44851;45.648;9.004;2023-07-30T07:31:47;11.07;;;10.03;;
59062;SDS011;44851;45.648;9.004;2023-07-30T07:34:12;11.50;;;10.50;;
59062;SDS011;44851;45.648;9.004;2023-07-30T07:36:38;10.63;;;9.63;;
59062;SDS011;44851;45.648;9.004;2023-07-30T07:39:04;9.93;;;9.10;;
59062;SDS011;44851;45.648;9.004;2023-07-30T07:41:29;9.70;;;8.80;;
59062;SDS011;44851;45.648;9.004;2023-07-30T07:43:54;10.57;;;9.50;;
59062;SDS011;44851;45.648;9.004;2023-07-30T07:46:20;9.87;;;9.00;;
59062;SDS011;44851;45.648;9.004;2023-07-30T07:48:46;10.07;;;9.07;;
59062;SDS011;44851;45.648;9.004;2023-07-30T07:51:11;9.60;;;8.80;;
59062;SDS011;44851;45.648;9.004;2023-07-30T07:53:37;10.33;;;9.40;;
59062;SDS011;44851;45.648;9.004;2023-07-30T07:56:03;9.60;;;8.60;;
59062;SDS011;44851;45.648;9.004;2023-07-30T07:58:29;9.10;;;8.20;;
59062;SDS011;44851;45.648;9.004;2023-07-30T08:00:55;8.90;;;8.20;;
59062;SDS011;44851;45.648;9.004;2023-07-30T08:03:21;8.17;;;7.37;;
59062;SDS011;44851;45.648;9.004;2023-07-30T08:05:47;7.70;;;7.00;;
59062;SDS011;44851;45.648;9.004;2023-07-30T08:08:13;9.23;;;7.70;;
59062;SDS011;44851;45.648;9.004;2023-07-30T08:10:39;9.20;;;8.13;;
59062;SDS011;44851;45.648;9.004;2023-07-30T08:13:04;7.43;;;6.80;;
59062;SDS011;44851;45.648;9.004;2023-07-30T08:15:30;8.00;;;7.23;;
59062;SDS011;44851;45.648;9.004;2023-07-30T08:17:55;8.73;;;7.90;;
59062;SDS011;44851;45.648;9.004;2023-07-30T08:20:21;8.60;;;7.90;;
59062;SDS011;44851;45.648;9.004;2023-07-30T08:22:46;8.30;;;7.60;;
59062;SDS011;44851;45.648;9.004;2023-07-30T08:25:12;8.00;;;7.20;;
59062;SDS011;44851;45.648;9.004;2023-07-30T08:27:37;7.20;;;6.50;;
59062;SDS011;44851;45.648;9.004;2023-07-30T08:30:03;7.20;;;6.50;;
59062;SDS011;44851;45.648;9.004;2023-07-30T08:32:28;7.70;;;7.00;;
59062;SDS011;44851;45.648;9.004;2023-07-30T08:34:54;8.43;;;6.40;;
59062;SDS011;44851;45.648;9.004;2023-07-30T08:37:19;7.53;;;6.73;;
59062;SDS011;44851;45.648;9.004;2023-07-30T08:39:44;7.20;;;6.60;;
59062;SDS011;44851;45.648;9.004;2023-07-30T08:42:10;7.50;;;6.70;;
59062;SDS011;44851;45.648;9.004;2023-07-30T08:44:35;7.77;;;7.07;;
59062;SDS011;44851;45.648;9.004;2023-07-30T08:47:01;7.33;;;6.73;;
59062;SDS011;44851;45.648;9.004;2023-07-30T08:49:27;6.77;;;6.17;;
59062;SDS011;44851;45.648;9.004;2023-07-30T08:51:57;7.70;;;6.90;;
59062;SDS011;44851;45.648;9.004;2023-07-30T08:54:24;6.50;;;5.90;;
59062;SDS011;44851;45.648;9.004;2023-07-30T08:56:54;7.07;;;6.37;;
59062;SDS011;44851;45.648;9.004;2023-07-30T08:59:20;6.67;;;6.07;;
59062;SDS011;44851;45.648;9.004;2023-07-30T09:01:46;6.83;;;5.90;;
59062;SDS011;44851;45.648;9.004;2023-07-30T09:04:17;6.37;;;5.87;;
59062;SDS011;44851;45.648;9.004;2023-07-30T09:06:43;6.00;;;5.50;;
59062;SDS011;44851;45.648;9.004;2023-07-30T09:09:13;6.50;;;5.90;;
59062;SDS011;44851;45.648;9.004;2023-07-30T09:11:38;5.80;;;5.23;;
59062;SDS011;44851;45.648;9.004;2023-07-30T09:14:05;6.50;;;5.50;;
59062;SDS011;44851;45.648;9.004;2023-07-30T09:16:30;7.07;;;5.43;;
59062;SDS011;44851;45.648;9.004;2023-07-30T09:18:56;5.47;;;4.97;;
59062;SDS011;44851;45.648;9.004;2023-07-30T09:21:39;5.43;;;4.97;;
59062;SDS011;44851;45.648;9.004;2023-07-30T09:24:05;5.53;;;5.03;;
59062;SDS011;44851;45.648;9.004;2023-07-30T09:26:44;5.70;;;5.20;;
59062;SDS011;44851;45.648;9.004;2023-07-30T09:29:11;7.10;;;6.40;;
59062;SDS011;44851;45.648;9.004;2023-07-30T09:31:47;6.73;;;6.10;;
59062;SDS011;44851;45.648;9.004;2023-07-30T09:34:17;6.50;;;5.97;;
59062;SDS011;44851;45.648;9.004;2023-07-30T09:36:46;5.53;;;5.03;;
59062;SDS011;44851;45.648;9.004;2023-07-30T09:39:16;6.03;;;5.03;;
59062;SDS011;44851;45.648;9.004;2023-07-30T09:41:42;5.93;;;5.13;;
59062;SDS011;44851;45.648;9.004;2023-07-30T09:44:08;7.13;;;5.13;;
59062;SDS011;44851;45.648;9.004;2023-07-30T09:46:34;5.80;;;4.70;;
59062;SDS011;44851;45.648;9.004;2023-07-30T09:49:08;4.67;;;4.27;;
59062;SDS011;44851;45.648;9.004;2023-07-30T09:51:34;8.47;;;5.90;;
59062;SDS011;44851;45.648;9.004;2023-07-30T09:54:05;5.17;;;4.67;;
59062;SDS011;44851;45.648;9.004;2023-07-30T09:56:38;5.30;;;4.80;;
59062;SDS011;44851;45.648;9.004;2023-07-30T09:59:05;4.73;;;4.33;;
59062;SDS011;44851;45.648;9.004;2023-07-30T10:01:31;4.90;;;4.50;;
59062;SDS011;44851;45.648;9.004;2023-07-30T10:03:58;4.90;;;4.50;;
59062;SDS011;44851;45.648;9.004;2023-07-30T10:06:24;5.47;;;4.00;;
59062;SDS011;44851;45.648;9.004;2023-07-30T10:08:53;5.83;;;4.20;;
59062;SDS011;44851;45.648;9.004;2023-07-30T10:11:22;5.82;;;4.43;;
59062;SDS011;44851;45.648;9.004;2023-07-30T10:13:48;5.00;;;4.50;;
59062;SDS011;44851;45.648;9.004;2023-07-30T10:16:15;4.97;;;4.57;;
59062;SDS011;44851;45.648;9.004;2023-07-30T10:18:41;4.83;;;4.33;;
59062;SDS011;44851;45.648;9.004;2023-07-30T10:21:08;4.93;;;4.17;;
59062;SDS011;44851;45.648;9.004;2023-07-30T10:23:35;4.70;;;4.23;;
59062;SDS011;44851;45.648;9.004;2023-07-30T10:26:10;4.83;;;4.07;;
59062;SDS011;44851;45.648;9.004;2023-07-30T10:28:36;4.13;;;3.83;;
59062;SDS011;44851;45.648;9.004;2023-07-30T10:31:07;5.00;;;4.40;;
59062;SDS011;44851;45.648;9.004;2023-07-30T10:33:54;9.38;;;4.30;;
59062;SDS011;44851;45.648;9.004;2023-07-30T10:37:05;4.50;;;4.10;;
59062;SDS011;44851;45.648;9.004;2023-07-30T10:41:57;4.70;;;4.20;;
59062;SDS011;44851;45.648;9.004;2023-07-30T10:46:53;6.78;;;5.18;;
59062;SDS011;44851;45.648;9.004;2023-07-30T10:49:23;5.95;;;4.45;;
59062;SDS011;44851;45.648;9.004;2023-07-30T10:51:48;4.95;;;4.45;;
59062;SDS011;44851;45.648;9.004;2023-07-30T10:54:15;5.15;;;4.35;;
59062;SDS011;44851;45.648;9.004;2023-07-30T10:56:41;4.82;;;4.32;;
59062;SDS011;44851;45.648;9.004;2023-07-30T10:59:07;4.60;;;4.25;;
59062;SDS011;44851;45.648;9.004;2023-07-30T11:01:36;4.75;;;4.35;;
59062;SDS011;44851;45.648;9.004;2023-07-30T11:04:10;4.27;;;3.83;;
59062;SDS011;44851;45.648;9.004;2023-07-30T11:06:44;4.97;;;4.47;;
59062;SDS011;44851;45.648;9.004;2023-07-30T11:09:22;5.05;;;4.55;;
59062;SDS011;44851;45.648;9.004;2023-07-30T11:11:49;5.20;;;4.80;;
59062;SDS011;44851;45.648;9.004;2023-07-30T11:14:18;5.43;;;4.93;;
59062;SDS011;44851;45.648;9.004;2023-07-30T11:19:18;4.68;;;4.18;;
59062;SDS011;44851;45.648;9.004;2023-07-30T11:21:44;4.10;;;3.70;;
59062;SDS011;44851;45.648;9.004;2023-07-30T11:24:10;4.72;;;3.72;;
59062;SDS011;44851;45.648;9.004;2023-07-30T11:26:36;3.78;;;3.47;;
